Gum Springs Road, Louisiana
Current Conditions -  °F | °C
As of 4:35 AM on Thursday 27 Nov 2014 (Local Time) from KIER Reporting Station
Clear Clear  
Wind Chill: 40°   Ceiling: Unl
Heat Index: 45°   Visibility: 10mi
Dew Point: 34°   Wind: 10mph
Humidity: 64%   Direction: 340°NNW
Pressure: 30.41"   Gusts: NA
Location:  31.8476°N, 92.7651°W
Report Text: KIER 271035Z AUTO 34009KT 10SM CLR 07/01 A3041 RMK AO2 T00720009
Loading
Personal Weather Stations






























Interactive Weather Map New forecast layout! Learn more

10-Day Weather Forecast

Advertisements
Track Severe Weather on mobile